»·PEaware :: N7234J CAD4-KGEG

N7234J :: CAD4-KGEG

FLIGHT INFORMATION

Flight Status: Arrived
Operator: Privately registered:
United States
More flights under this callsign
Pilot: Wayne R. (17783)
Aircraft: PIPER PA-28 CHEROKEE ARCHER
(P28A)
More flights by this aircraft type
Origin: CAD4 Trail
Canada
Destination: KGEG Spokane Intl
United States
More flights between these airports :: More routes between these airports
Route:
File this flight plan on PilotEdge
Remarks:
Altitude:
(Current/Filed)
5,500ft
Speed:
(Current/Filed)
100kts
Departed: 24-Oct-19 04:00 PM
Arrived: 24-Oct-19 04:54 PM
Distance/Time
Traveled:
87nm/0:53
Distance/Time
To Go:
Arrived

Flight Plot

Page will automatically refresh every two minutes.

Flight plan parsing failed; only flown route is shown


Map Options




Map Legend


Flown Route
Filed Route
Departure Airport
Arrival Airport
Navaid (VOR, NDB)
Fix

Horizontal Profiles

Position Reports

Time Latitude Longitude Heading Altitude Ground
Speed
24-Oct-19 15:57 49.056042 -117.608151 89 1427ft 0kts
24-Oct-19 15:58 49.059057 -117.609384 358 1427ft 40kts
24-Oct-19 15:59 49.052157 -117.610388 186 1698ft 75kts
24-Oct-19 16:00 49.027580 -117.620133 188 2477ft 102kts
24-Oct-19 16:01 48.997344 -117.630712 208 2889ft 115kts
24-Oct-19 16:02 48.975369 -117.659312 235 3353ft 115kts
24-Oct-19 16:03 48.956552 -117.696741 235 3755ft 121kts
24-Oct-19 16:04 48.936192 -117.736368 235 3745ft 116kts
24-Oct-19 16:05 48.916176 -117.775340 235 3745ft 116kts
24-Oct-19 16:06 48.899629 -117.807628 235 3745ft 116kts
24-Oct-19 16:07 48.879631 -117.846692 235 3743ft 114kts
24-Oct-19 16:08 48.859507 -117.884582 216 3739ft 116kts
24-Oct-19 16:09 48.832954 -117.870016 150 4258ft 94kts
24-Oct-19 16:10 48.811193 -117.855385 170 5099ft 78kts
24-Oct-19 16:11 48.790531 -117.848545 178 5867ft 85kts
24-Oct-19 16:12 48.761643 -117.844579 180 5867ft 109kts
24-Oct-19 16:13 48.730952 -117.839007 178 5866ft 110kts
24-Oct-19 16:14 48.700742 -117.840185 192 5866ft 107kts
24-Oct-19 16:15 48.670983 -117.846138 192 5875ft 107kts
24-Oct-19 16:16 48.640944 -117.850197 165 5846ft 113kts
24-Oct-19 16:17 48.613149 -117.826545 160 5866ft 114kts
24-Oct-19 16:18 48.583066 -117.829334 194 5869ft 107kts
24-Oct-19 16:19 48.553093 -117.820416 159 5871ft 114kts
24-Oct-19 16:20 48.524991 -117.797962 159 5872ft 113kts
24-Oct-19 16:21 48.497143 -117.775706 159 5874ft 113kts
24-Oct-19 16:22 48.469427 -117.753589 159 5875ft 112kts
24-Oct-19 16:23 48.441829 -117.731620 159 5875ft 112kts
24-Oct-19 16:24 48.414123 -117.709622 159 5875ft 112kts
24-Oct-19 16:25 48.386519 -117.687763 159 5875ft 112kts
24-Oct-19 16:26 48.358831 -117.665934 159 5875ft 112kts
24-Oct-19 16:27 48.331146 -117.644199 159 5875ft 112kts
24-Oct-19 16:28 48.303430 -117.622505 159 5875ft 112kts
24-Oct-19 16:30 48.275556 -117.600736 159 5875ft 112kts
24-Oct-19 16:31 48.247468 -117.581028 163 5834ft 111kts
24-Oct-19 16:32 48.218587 -117.563416 165 5835ft 110kts
24-Oct-19 16:33 48.189811 -117.547535 172 5833ft 109kts
24-Oct-19 16:34 48.160210 -117.547542 185 5834ft 106kts
24-Oct-19 16:35 48.130640 -117.545105 178 5834ft 107kts
24-Oct-19 16:36 48.099048 -117.539652 178 5424ft 108kts
24-Oct-19 16:37 48.069522 -117.534840 178 5468ft 107kts
24-Oct-19 16:38 48.040195 -117.530004 178 5465ft 100kts
24-Oct-19 16:39 48.013225 -117.525175 178 5399ft 99kts
24-Oct-19 16:40 47.985334 -117.520635 178 5194ft 101kts
24-Oct-19 16:41 47.956088 -117.516582 178 4993ft 107kts
24-Oct-19 16:42 47.926163 -117.512932 178 4783ft 107kts
24-Oct-19 16:43 47.896367 -117.509723 178 4575ft 107kts
24-Oct-19 16:44 47.866557 -117.506894 178 4385ft 106kts
24-Oct-19 16:45 47.839278 -117.505780 179 4677ft 92kts
24-Oct-19 16:46 47.812137 -117.503226 178 4823ft 100kts
24-Oct-19 16:47 47.783925 -117.500633 173 4638ft 104kts
24-Oct-19 16:48 47.755316 -117.495763 181 4397ft 103kts
24-Oct-19 16:48 47.731461 -117.495855 178 4301ft 103kts
24-Oct-19 16:50 47.697648 -117.491972 179 4252ft 107kts
24-Oct-19 16:51 47.669609 -117.491202 181 3637ft 92kts
24-Oct-19 16:52 47.646129 -117.499979 206 2884ft 83kts
24-Oct-19 16:52 47.631935 -117.517221 220 2337ft 72kts
24-Oct-19 16:53 47.626447 -117.523302 135 2339ft 0kts
24-Oct-19 16:55 47.622600 -117.524988 168 2354ft 22kts
24-Oct-19 16:55 47.621339 -117.524435 251 2359ft 0kts
24-Oct-19 16:56 47.621339 -117.524435 251 2359ft 0kts
24-Oct-19 16:57 47.621339 -117.524435 251 2359ft 0kts
24-Oct-19 16:58 47.621339 -117.524435 251 2359ft 0kts
24-Oct-19 16:59 47.621339 -117.524435 251 2359ft 0kts
24-Oct-19 17:00 47.621339 -117.524435 251 2359ft 0kts
24-Oct-19 17:01 47.621339 -117.524435 251 2359ft 0kts
24-Oct-19 17:02 47.621339 -117.524435 251 2359ft 0kts
24-Oct-19 17:03 47.621339 -117.524435 251 2359ft 0kts

Navigation Log

Ident Type
Flight plan parsing failed, navigation log unavailable